Time;durP1;ratioP1;P1;durP2;ratioP2;P2;SDS_P1;SDS_P2;PMS_P1;PMS_P2;Temp;Humidity;BMP_temperature;BMP_pressure;BME280_temperature;BME280_humidity;BME280_pressure;Samples;Min_cycle;Max_cycle;Signal;HPM_P1;HPM_P2
2023/08/11 00:02:15;;;;;;;11.10;9.23;;;14.90;99.90;;;;;;5121726;27;20039;-67
2023/08/11 00:04:41;;;;;;;9.98;8.98;;;14.90;99.90;;;;;;5119328;27;20050;-65
2023/08/11 00:07:07;;;;;;;12.27;9.57;;;14.90;99.90;;;;;;5126694;27;20041;-66
2023/08/11 00:09:32;;;;;;;10.73;9.55;;;14.90;99.90;;;;;;5121218;27;20137;-67
2023/08/11 00:11:58;;;;;;;10.65;9.55;;;14.90;99.90;;;;;;5123425;27;20065;-67
2023/08/11 00:14:23;;;;;;;10.48;9.23;;;14.90;99.90;;;;;;5130959;27;20149;-67
2023/08/11 00:16:49;;;;;;;13.23;9.65;;;14.90;99.90;;;;;;5120343;27;20125;-67
2023/08/11 00:19:16;;;;;;;11.98;10.20;;;14.90;99.90;;;;;;5118812;27;20073;-68
2023/08/11 00:21:41;;;;;;;11.05;9.68;;;14.90;99.90;;;;;;5137746;27;20051;-68
2023/08/11 00:24:07;;;;;;;10.80;9.65;;;15.00;99.90;;;;;;5114222;27;20042;-65
2023/08/11 00:26:33;;;;;;;14.80;10.38;;;14.90;99.90;;;;;;5121430;27;20031;-67
2023/08/11 00:28:58;;;;;;;10.50;9.43;;;14.90;99.90;;;;;;5124341;27;20043;-66
2023/08/11 00:31:24;;;;;;;11.93;9.75;;;14.90;99.90;;;;;;5128089;27;20038;-65
2023/08/11 00:33:51;;;;;;;12.52;10.00;;;14.90;99.90;;;;;;5122328;27;20043;-67
2023/08/11 00:36:18;;;;;;;12.70;9.52;;;14.90;99.90;;;;;;5118871;27;20052;-67
2023/08/11 00:38:43;;;;;;;11.27;10.18;;;14.90;99.90;;;;;;5101345;27;20129;-67
2023/08/11 00:41:09;;;;;;;11.07;9.57;;;14.90;99.90;;;;;;5126538;27;20117;-69
2023/08/11 00:43:35;;;;;;;11.25;10.07;;;14.90;99.90;;;;;;5118677;27;20507;-66
2023/08/11 00:46:08;;;;;;;12.43;10.23;;;14.90;99.90;;;;;;5118064;27;20039;-67
2023/08/11 00:48:34;;;;;;;12.75;10.57;;;14.90;99.90;;;;;;5118537;27;20043;-66
2023/08/11 00:51:01;;;;;;;14.23;11.95;;;14.90;99.90;;;;;;5117376;27;20042;-65
2023/08/11 00:53:27;;;;;;;12.20;10.50;;;14.90;99.90;;;;;;5123590;27;20091;-66
2023/08/11 00:55:52;;;;;;;12.07;10.65;;;14.90;99.90;;;;;;5152153;27;20043;-66
2023/08/11 00:58:18;;;;;;;12.40;10.23;;;14.90;99.90;;;;;;5124713;27;20442;-67
2023/08/11 01:00:45;;;;;;;14.27;11.02;;;14.80;99.90;;;;;;5132600;27;20126;-66
2023/08/11 01:03:11;;;;;;;12.38;11.00;;;14.80;99.90;;;;;;5123334;27;20087;-67
2023/08/11 01:05:45;;;;;;;13.88;11.00;;;14.90;99.90;;;;;;5118709;27;20051;-64
2023/08/11 01:08:29;;;;;;;15.93;11.35;;;14.90;99.90;;;;;;5120913;27;20041;-65
2023/08/11 01:11:07;;;;;;;13.55;12.15;;;14.90;99.90;;;;;;5116088;27;20046;-65
2023/08/11 01:13:36;;;;;;;16.58;11.75;;;14.90;99.90;;;;;;5123163;27;20400;-69
2023/08/11 01:16:04;;;;;;;11.65;10.45;;;15.00;99.90;;;;;;5120591;27;20081;-67
2023/08/11 01:18:33;;;;;;;12.10;10.90;;;15.00;99.90;;;;;;5118615;27;20042;-66
2023/08/11 01:21:01;;;;;;;12.43;11.13;;;14.90;99.90;;;;;;5121048;27;20051;-66
2023/08/11 01:23:27;;;;;;;12.45;10.90;;;15.00;99.90;;;;;;5119119;27;20051;-66
2023/08/11 01:25:54;;;;;;;13.30;11.48;;;15.00;99.90;;;;;;5119455;27;20045;-65
2023/08/11 01:28:20;;;;;;;14.95;11.23;;;15.00;99.90;;;;;;5135516;27;20376;-64
2023/08/11 01:30:45;;;;;;;13.80;12.38;;;15.00;99.90;;;;;;5123921;27;20042;-65
2023/08/11 01:33:11;;;;;;;12.93;11.32;;;15.00;99.90;;;;;;5122402;27;20039;-66
2023/08/11 01:35:37;;;;;;;13.50;12.15;;;15.00;99.90;;;;;;5130261;27;20040;-66
2023/08/11 01:38:03;;;;;;;13.00;11.70;;;15.00;99.90;;;;;;5128163;27;20422;-66
2023/08/11 01:40:29;;;;;;;13.50;12.20;;;15.00;99.90;;;;;;5120800;27;20057;-67
2023/08/11 01:42:56;;;;;;;13.10;11.70;;;15.00;99.90;;;;;;5113268;27;20376;-65
2023/08/11 01:45:23;;;;;;;12.70;11.50;;;15.00;99.90;;;;;;5140395;27;20042;-66
2023/08/11 01:47:50;;;;;;;13.07;11.52;;;15.00;99.90;;;;;;5113528;27;20035;-67
2023/08/11 01:50:19;;;;;;;12.70;11.40;;;15.00;99.90;;;;;;5117104;27;21743;-68
2023/08/11 01:52:47;;;;;;;13.23;11.82;;;15.00;99.90;;;;;;5129949;27;20046;-67
2023/08/11 01:55:14;;;;;;;13.93;11.40;;;15.00;99.90;;;;;;5121612;27;20343;-67
2023/08/11 01:57:41;;;;;;;12.95;11.52;;;15.00;99.90;;;;;;5120002;27;20038;-68
2023/08/11 02:00:10;;;;;;;12.10;10.90;;;15.00;99.90;;;;;;5117575;27;20148;-65
2023/08/11 02:02:37;;;;;;;13.95;11.48;;;15.00;99.90;;;;;;5104492;27;20516;-65
2023/08/11 02:05:07;;;;;;;14.40;12.32;;;15.00;99.90;;;;;;5124285;27;20064;-67
2023/08/11 02:07:35;;;;;;;12.57;10.98;;;15.00;99.90;;;;;;5104049;27;20031;-66
2023/08/11 02:10:01;;;;;;;14.25;12.10;;;15.00;99.90;;;;;;5117796;27;20043;-64
2023/08/11 02:12:27;;;;;;;12.10;10.95;;;15.00;99.90;;;;;;5121044;27;20078;-67
2023/08/11 02:14:53;;;;;;;12.73;11.48;;;15.10;99.90;;;;;;5125157;27;20088;-66
2023/08/11 02:17:19;;;;;;;13.00;11.70;;;15.00;99.90;;;;;;5124115;27;20054;-68
2023/08/11 02:19:45;;;;;;;13.90;11.95;;;15.10;99.90;;;;;;5124402;27;20391;-66
2023/08/11 02:22:11;;;;;;;13.10;11.13;;;15.10;99.90;;;;;;5124562;27;20054;-66
2023/08/11 02:24:37;;;;;;;15.55;12.00;;;15.10;99.90;;;;;;5120550;27;20131;-67
2023/08/11 02:27:03;;;;;;;13.13;10.95;;;15.10;99.90;;;;;;5122472;27;21395;-67
2023/08/11 02:29:28;;;;;;;11.23;10.05;;;15.10;99.90;;;;;;5125646;27;20066;-67
2023/08/11 02:31:54;;;;;;;12.00;10.48;;;15.10;99.90;;;;;;5129948;27;20527;-68
2023/08/11 02:34:19;;;;;;;12.13;10.98;;;15.20;99.90;;;;;;5126583;27;20054;-67
2023/08/11 02:36:45;;;;;;;11.68;9.82;;;15.20;99.90;;;;;;5108369;27;20078;-69
2023/08/11 02:39:11;;;;;;;11.50;9.70;;;15.20;99.90;;;;;;5124071;27;20061;-67
2023/08/11 02:41:36;;;;;;;15.50;10.82;;;15.20;99.90;;;;;;5122314;27;20047;-65
2023/08/11 02:44:02;;;;;;;10.80;9.73;;;15.20;99.90;;;;;;5121535;27;20031;-66
2023/08/11 02:46:28;;;;;;;10.50;9.23;;;15.20;99.90;;;;;;5120990;27;20047;-67
2023/08/11 02:48:53;;;;;;;12.00;9.20;;;15.20;99.90;;;;;;5124146;27;20039;-66
2023/08/11 02:51:19;;;;;;;12.13;9.50;;;15.20;99.90;;;;;;5113769;27;20051;-69
2023/08/11 02:53:45;;;;;;;11.45;9.30;;;15.20;99.90;;;;;;5121098;27;20868;-64
2023/08/11 02:56:15;;;;;;;10.00;9.00;;;15.20;99.90;;;;;;5118138;27;20050;-64
2023/08/11 02:58:41;;;;;;;11.13;8.43;;;15.20;99.90;;;;;;5121985;27;20467;-63
2023/08/11 03:01:07;;;;;;;11.13;9.05;;;15.20;99.90;;;;;;5125859;27;20042;-66
2023/08/11 03:03:33;;;;;;;10.25;8.70;;;15.20;99.90;;;;;;5118694;27;20461;-63
2023/08/11 03:05:59;;;;;;;9.55;8.65;;;15.20;99.90;;;;;;5122269;27;20049;-67
2023/08/11 03:08:25;;;;;;;10.32;8.57;;;15.20;99.90;;;;;;5120521;27;20043;-66
2023/08/11 03:10:50;;;;;;;13.95;8.15;;;15.10;99.90;;;;;;5122469;27;20030;-66
2023/08/11 03:13:16;;;;;;;9.80;8.80;;;15.20;99.90;;;;;;5121425;27;20047;-67
2023/08/11 03:15:42;;;;;;;10.10;8.65;;;15.10;99.90;;;;;;5122211;27;20035;-67
2023/08/11 03:18:10;;;;;;;10.80;8.93;;;15.10;99.90;;;;;;5123835;27;20039;-66
2023/08/11 03:20:36;;;;;;;10.57;8.52;;;15.10;99.90;;;;;;5123996;27;20047;-69
2023/08/11 03:23:04;;;;;;;12.70;9.20;;;15.10;99.90;;;;;;5117649;27;20079;-68
2023/08/11 03:25:30;;;;;;;9.10;8.18;;;15.10;99.90;;;;;;5121903;27;20043;-67
2023/08/11 03:27:56;;;;;;;9.40;8.38;;;15.10;99.90;;;;;;5120941;27;20039;-66
2023/08/11 03:30:23;;;;;;;9.98;8.40;;;15.10;99.90;;;;;;5122478;27;20043;-65
2023/08/11 03:32:49;;;;;;;9.73;8.70;;;15.10;99.90;;;;;;5121521;27;20049;-65
2023/08/11 03:35:17;;;;;;;10.25;8.40;;;15.10;99.90;;;;;;5122489;27;20035;-66
2023/08/11 03:37:43;;;;;;;10.18;8.80;;;15.10;99.90;;;;;;5119973;27;20040;-65
2023/08/11 03:40:12;;;;;;;9.73;8.63;;;15.10;99.90;;;;;;5118097;27;20642;-65
2023/08/11 03:42:40;;;;;;;8.85;8.00;;;15.10;99.90;;;;;;5119533;27;20038;-68
2023/08/11 03:45:06;;;;;;;9.85;8.88;;;15.00;99.90;;;;;;5119702;27;20035;-68
2023/08/11 03:47:32;;;;;;;9.63;8.30;;;15.00;99.90;;;;;;5119327;27;20080;-65
2023/08/11 03:49:57;;;;;;;10.30;8.25;;;15.00;99.90;;;;;;5106190;27;20086;-66
2023/08/11 03:52:24;;;;;;;10.95;8.68;;;15.00;99.90;;;;;;5122474;27;20131;-66
2023/08/11 03:54:50;;;;;;;10.48;8.02;;;15.00;99.90;;;;;;5120174;27;20047;-67
2023/08/11 03:57:16;;;;;;;9.45;8.25;;;15.00;99.90;;;;;;5120717;27;20496;-68
2023/08/11 03:59:42;;;;;;;12.27;8.88;;;15.00;99.90;;;;;;5121210;27;20039;-67
2023/08/11 04:02:08;;;;;;;9.38;8.48;;;15.00;99.90;;;;;;5119033;27;20031;-66
2023/08/11 04:04:34;;;;;;;11.63;8.48;;;15.00;99.90;;;;;;5116303;27;20046;-67
2023/08/11 04:06:59;;;;;;;11.43;8.45;;;15.00;99.90;;;;;;5119630;27;20046;-67
2023/08/11 04:09:25;;;;;;;10.63;8.43;;;15.00;99.90;;;;;;5119022;27;20058;-67
2023/08/11 04:11:51;;;;;;;14.30;8.93;;;14.90;99.90;;;;;;5121224;27;20062;-64
2023/08/11 04:14:16;;;;;;;9.27;8.35;;;14.90;99.90;;;;;;5121332;27;20421;-67
2023/08/11 04:16:43;;;;;;;9.32;8.40;;;14.90;99.90;;;;;;5120933;27;20050;-67
2023/08/11 04:19:09;;;;;;;10.52;8.60;;;14.90;99.90;;;;;;5119923;27;20034;-66
2023/08/11 04:21:35;;;;;;;13.00;9.00;;;14.90;99.90;;;;;;5116046;27;20414;-67
2023/08/11 04:24:02;;;;;;;9.63;8.63;;;14.90;99.90;;;;;;5098530;27;20035;-64
2023/08/11 04:26:27;;;;;;;11.30;8.40;;;15.00;99.90;;;;;;5116288;27;20043;-64
2023/08/11 04:28:53;;;;;;;9.38;8.13;;;14.90;99.90;;;;;;5117981;27;20490;-68
2023/08/11 04:31:19;;;;;;;10.40;8.50;;;15.00;99.90;;;;;;5114701;27;20058;-66
2023/08/11 04:33:45;;;;;;;11.05;8.82;;;15.00;99.90;;;;;;5114271;27;20046;-66
2023/08/11 04:36:10;;;;;;;10.13;8.55;;;15.00;99.90;;;;;;5129090;27;20031;-67
2023/08/11 04:38:36;;;;;;;9.30;8.20;;;15.00;99.90;;;;;;5113793;27;20173;-66
2023/08/11 04:41:02;;;;;;;9.95;7.93;;;15.10;99.90;;;;;;5116256;27;20035;-67
2023/08/11 04:43:27;;;;;;;8.40;7.60;;;15.00;99.90;;;;;;5120451;27;20039;-68
2023/08/11 04:45:54;;;;;;;8.85;7.82;;;15.10;99.90;;;;;;5121995;27;20122;-65
2023/08/11 04:48:19;;;;;;;9.05;7.85;;;15.10;99.90;;;;;;5122228;27;20056;-65
2023/08/11 04:50:52;;;;;;;10.77;8.02;;;15.10;99.90;;;;;;5103904;27;20129;-67
2023/08/11 04:53:17;;;;;;;;;;;15.20;99.90;;;;;;5121693;27;20566;-65
2023/08/11 04:55:43;;;;;;;9.80;7.30;;;15.20;99.90;;;;;;5112923;27;19996;-67
2023/08/11 04:58:09;;;;;;;9.55;7.60;;;15.20;99.90;;;;;;5114070;27;20043;-66
2023/08/11 05:00:37;;;;;;;10.35;7.65;;;15.30;99.90;;;;;;5109599;28;20498;-66
2023/08/11 05:03:03;;;;;;;11.13;7.82;;;15.30;99.90;;;;;;5111518;27;20377;-66
2023/08/11 05:05:29;;;;;;;11.75;7.70;;;15.40;99.90;;;;;;5118015;27;20046;-66
2023/08/11 05:07:55;;;;;;;9.23;7.60;;;15.40;99.90;;;;;;5116403;27;20390;-65
2023/08/11 05:10:20;;;;;;;8.32;7.25;;;15.50;99.90;;;;;;5111727;27;20413;-68
2023/08/11 05:12:48;;;;;;;11.95;7.70;;;15.50;99.90;;;;;;5111505;28;20051;-66
2023/08/11 05:15:14;;;;;;;8.85;7.18;;;15.50;99.90;;;;;;5108507;28;20043;-67
2023/08/11 05:17:39;;;;;;;8.57;7.05;;;15.60;99.90;;;;;;5107135;28;20031;-68
2023/08/11 05:20:07;;;;;;;8.70;7.15;;;15.70;99.90;;;;;;5116373;27;20047;-68
2023/08/11 05:22:36;;;;;;;9.30;6.97;;;15.70;99.90;;;;;;5108845;28;20048;-68
2023/08/11 05:25:05;;;;;;;11.48;7.25;;;15.80;99.90;;;;;;5127514;28;20049;-68
2023/08/11 05:27:31;;;;;;;8.82;7.90;;;15.90;99.90;;;;;;5129777;28;20125;-68
2023/08/11 05:29:57;;;;;;;8.82;7.40;;;15.90;99.90;;;;;;5130143;28;20115;-66
2023/08/11 05:32:26;;;;;;;8.60;7.38;;;16.00;99.90;;;;;;5112682;28;20047;-67
2023/08/11 05:34:52;;;;;;;9.82;7.38;;;16.10;99.90;;;;;;5128843;27;20503;-68
2023/08/11 05:37:18;;;;;;;8.20;6.65;;;16.10;99.90;;;;;;5134551;27;20394;-66
2023/08/11 05:39:44;;;;;;;8.95;6.70;;;16.20;99.90;;;;;;5133812;27;20039;-69
2023/08/11 05:42:10;;;;;;;7.75;6.60;;;16.30;99.90;;;;;;5134455;27;20504;-68
2023/08/11 05:44:35;;;;;;;8.40;7.22;;;16.40;99.90;;;;;;5131107;27;20037;-66
2023/08/11 05:47:01;;;;;;;8.60;6.88;;;16.50;99.90;;;;;;5113563;27;20092;-67
2023/08/11 05:49:27;;;;;;;8.77;6.45;;;16.60;99.90;;;;;;5132131;27;20043;-67
2023/08/11 05:51:53;;;;;;;8.50;6.95;;;16.70;99.90;;;;;;5134000;27;20043;-68
2023/08/11 05:54:19;;;;;;;7.13;6.03;;;16.80;99.90;;;;;;5133899;27;20494;-67
2023/08/11 05:56:45;;;;;;;9.70;6.03;;;16.90;99.90;;;;;;5124824;27;20067;-67
2023/08/11 05:59:10;;;;;;;8.98;6.13;;;17.00;99.90;;;;;;5121599;27;20056;-66
2023/08/11 06:01:36;;;;;;;7.10;6.28;;;17.10;99.90;;;;;;5122131;27;20550;-69
2023/08/11 06:04:03;;;;;;;8.27;6.15;;;17.20;99.90;;;;;;5122989;27;20478;-69
2023/08/11 06:06:31;;;;;;;9.60;6.03;;;17.30;99.90;;;;;;5121553;27;20562;-67
2023/08/11 06:08:57;;;;;;;8.63;6.32;;;17.40;99.90;;;;;;5120835;27;20487;-66
2023/08/11 06:11:22;;;;;;;8.38;5.43;;;17.50;99.90;;;;;;5123590;27;20055;-68
2023/08/11 06:13:48;;;;;;;8.30;5.78;;;17.70;99.90;;;;;;5120790;27;20050;-66
2023/08/11 06:16:13;;;;;;;8.20;5.22;;;17.80;99.90;;;;;;5124475;27;20409;-66
2023/08/11 06:18:39;;;;;;;10.32;5.45;;;17.90;99.90;;;;;;5122939;27;20047;-66
2023/08/11 06:21:05;;;;;;;6.90;5.78;;;18.00;99.90;;;;;;5115994;27;20097;-68
2023/08/11 06:23:34;;;;;;;5.80;5.20;;;18.10;99.90;;;;;;5112900;28;20071;-67
2023/08/11 06:26:00;;;;;;;7.03;5.38;;;18.30;99.90;;;;;;5122319;27;20039;-70
2023/08/11 06:28:25;;;;;;;7.93;5.50;;;18.40;99.90;;;;;;5123494;27;20046;-68
2023/08/11 06:30:51;;;;;;;6.10;5.50;;;18.50;99.90;;;;;;5127557;27;20047;-66
2023/08/11 06:33:17;;;;;;;7.10;5.95;;;18.60;99.90;;;;;;5107868;27;20402;-67
2023/08/11 06:35:42;;;;;;;6.13;4.88;;;18.70;99.90;;;;;;5103677;27;20409;-68
2023/08/11 06:38:10;;;;;;;7.78;5.05;;;18.80;99.90;;;;;;5120780;27;20078;-67
2023/08/11 06:40:38;;;;;;;6.88;5.10;;;19.00;99.90;;;;;;5123433;27;20084;-67
2023/08/11 06:43:04;;;;;;;8.52;4.65;;;19.10;99.90;;;;;;5120646;27;20062;-66
2023/08/11 06:45:30;;;;;;;6.30;5.00;;;19.20;99.90;;;;;;5117368;27;20031;-67
2023/08/11 06:47:56;;;;;;;6.82;5.30;;;19.30;99.90;;;;;;5120325;27;20050;-67
2023/08/11 06:50:21;;;;;;;7.90;5.03;;;19.40;99.90;;;;;;5117018;27;20059;-67
2023/08/11 06:52:47;;;;;;;6.30;4.53;;;19.60;99.90;;;;;;5119789;27;20047;-66
2023/08/11 06:55:13;;;;;;;6.88;4.72;;;19.70;99.90;;;;;;5129173;27;20055;-66
2023/08/11 06:57:38;;;;;;;6.43;4.40;;;19.80;99.90;;;;;;5125316;27;20078;-68
2023/08/11 07:00:07;;;;;;;6.70;4.97;;;19.90;99.90;;;;;;5123140;27;20059;-67
2023/08/11 07:02:33;;;;;;;5.57;4.57;;;20.00;99.90;;;;;;5122294;27;20048;-65
2023/08/11 07:04:59;;;;;;;6.07;4.35;;;20.10;99.90;;;;;;5126930;27;20464;-65
2023/08/11 07:07:24;;;;;;;6.93;4.78;;;20.20;99.90;;;;;;5125740;27;20077;-66
2023/08/11 07:09:50;;;;;;;6.45;4.93;;;20.30;99.90;;;;;;5123446;27;20091;-65
2023/08/11 07:12:16;;;;;;;6.10;4.47;;;20.50;99.90;;;;;;5124590;27;20058;-65
2023/08/11 07:14:42;;;;;;;6.60;5.20;;;20.60;99.90;;;;;;5125151;27;20043;-67
2023/08/11 07:17:08;;;;;;;7.13;4.63;;;20.70;99.90;;;;;;5116643;27;20067;-66
2023/08/11 07:19:34;;;;;;;6.72;4.97;;;20.70;99.90;;;;;;5121434;27;20043;-67
2023/08/11 07:22:00;;;;;;;6.95;4.50;;;20.80;99.90;;;;;;5115424;27;20044;-66
2023/08/11 07:24:25;;;;;;;5.38;4.70;;;21.00;99.90;;;;;;5119866;27;20036;-67
2023/08/11 07:26:51;;;;;;;7.35;4.38;;;21.10;99.90;;;;;;5117897;27;20132;-67
2023/08/11 07:29:17;;;;;;;7.22;5.20;;;21.20;99.90;;;;;;5111404;27;20042;-66
2023/08/11 07:31:43;;;;;;;8.15;5.05;;;21.20;99.90;;;;;;5114443;27;20035;-66
2023/08/11 07:34:09;;;;;;;8.65;4.55;;;21.30;99.90;;;;;;5116863;27;20032;-68
2023/08/11 07:36:36;;;;;;;7.65;4.45;;;21.40;99.90;;;;;;5110914;28;20040;-67
2023/08/11 07:39:02;;;;;;;5.55;4.80;;;21.50;99.90;;;;;;5111087;28;20065;-67
2023/08/11 07:41:29;;;;;;;6.60;4.85;;;21.60;99.90;;;;;;5111047;28;20023;-69
2023/08/11 07:43:54;;;;;;;7.18;4.97;;;21.80;99.90;;;;;;5118422;27;20046;-68
2023/08/11 07:46:20;;;;;;;5.60;4.80;;;21.80;99.90;;;;;;5110711;28;20036;-66
2023/08/11 07:48:46;;;;;;;6.03;4.88;;;21.80;99.90;;;;;;5116592;27;20064;-67
2023/08/11 07:51:14;;;;;;;6.90;5.10;;;21.90;99.90;;;;;;5113897;27;20054;-67
2023/08/11 07:53:40;;;;;;;7.38;4.85;;;22.00;99.90;;;;;;5131534;27;20051;-65
2023/08/11 07:56:05;;;;;;;7.93;4.57;;;22.10;99.90;;;;;;5121409;27;20101;-67
2023/08/11 07:58:31;;;;;;;5.05;4.10;;;22.20;99.90;;;;;;5117656;27;20043;-67
2023/08/11 08:00:57;;;;;;;7.85;4.10;;;22.30;99.90;;;;;;5114498;27;20040;-66
2023/08/11 08:03:23;;;;;;;5.93;4.30;;;22.50;99.90;;;;;;5125827;27;20105;-65
2023/08/11 08:05:49;;;;;;;8.65;4.30;;;22.50;99.90;;;;;;5124270;27;20044;-68
2023/08/11 08:08:14;;;;;;;4.85;4.20;;;22.60;99.90;;;;;;5119381;27;20047;-72
2023/08/11 08:10:40;;;;;;;8.93;4.38;;;22.60;99.90;;;;;;5131395;27;20046;-68
2023/08/11 08:13:05;;;;;;;6.45;4.38;;;22.60;99.90;;;;;;5130911;27;20047;-67
2023/08/11 08:15:31;;;;;;;7.90;4.35;;;22.70;99.90;;;;;;5122604;27;20047;-68
2023/08/11 08:17:57;;;;;;;7.45;3.58;;;22.70;99.90;;;;;;5117429;27;20523;-68
2023/08/11 08:20:24;;;;;;;4.90;3.55;;;22.80;99.90;;;;;;5111358;27;20031;-69
2023/08/11 08:22:50;;;;;;;5.18;3.90;;;22.80;99.90;;;;;;5118711;27;20112;-69
2023/08/11 08:25:15;;;;;;;6.10;3.60;;;23.00;99.90;;;;;;5126168;27;20080;-67
2023/08/11 08:27:41;;;;;;;4.47;3.50;;;23.00;99.90;;;;;;5120125;27;20047;-67
2023/08/11 08:30:10;;;;;;;5.88;4.20;;;23.10;99.90;;;;;;5109363;28;20044;-65
2023/08/11 08:32:37;;;;;;;7.13;3.80;;;23.20;99.90;;;;;;5109298;28;20040;-68
2023/08/11 08:35:03;;;;;;;8.70;3.55;;;23.30;99.90;;;;;;5091338;28;20104;-67
2023/08/11 08:37:31;;;;;;;7.72;4.05;;;23.40;99.90;;;;;;5092453;27;20042;-69
2023/08/11 08:39:57;;;;;;;5.80;4.10;;;23.40;99.90;;;;;;5112324;27;20039;-67
2023/08/11 08:42:25;;;;;;;6.75;3.80;;;23.40;99.90;;;;;;5109717;28;20468;-67
2023/08/11 08:44:52;;;;;;;5.90;3.40;;;23.40;99.90;;;;;;5109217;28;20088;-67
2023/08/11 08:47:19;;;;;;;5.43;3.50;;;23.50;99.90;;;;;;5108797;27;20036;-68
2023/08/11 08:49:46;;;;;;;5.13;3.67;;;23.70;99.90;;;;;;5108633;28;20109;-70
2023/08/11 08:52:12;;;;;;;7.07;3.95;;;23.80;99.90;;;;;;5109398;27;20403;-69
2023/08/11 08:54:40;;;;;;;6.45;4.25;;;23.90;99.90;;;;;;5108448;28;20032;-68
2023/08/11 08:57:09;;;;;;;6.72;3.50;;;24.00;99.90;;;;;;5110385;28;20032;-70
2023/08/11 08:59:38;;;;;;;5.45;4.10;;;24.10;99.90;;;;;;5108926;28;20118;-69
2023/08/11 09:02:06;;;;;;;7.40;4.15;;;24.20;99.90;;;;;;5109153;28;20036;-68
2023/08/11 09:04:35;;;;;;;5.85;3.33;;;24.20;99.90;;;;;;5108936;28;20478;-68
2023/08/11 09:07:01;;;;;;;7.65;3.55;;;24.20;99.90;;;;;;5108707;28;20100;-68
2023/08/11 09:09:30;;;;;;;5.25;3.28;;;24.30;99.90;;;;;;5115779;27;20031;-69
2023/08/11 09:11:56;;;;;;;5.00;3.47;;;24.40;99.90;;;;;;5108689;28;20044;-68
2023/08/11 09:14:22;;;;;;;5.53;4.03;;;24.60;99.90;;;;;;5109120;28;20929;-67
2023/08/11 09:16:52;;;;;;;6.47;3.50;;;24.80;99.90;;;;;;5108482;28;20063;-70
2023/08/11 09:19:19;;;;;;;8.00;3.30;;;24.90;99.90;;;;;;5109484;28;20122;-70
2023/08/11 09:21:47;;;;;;;5.32;3.15;;;25.10;99.90;;;;;;5110575;28;20080;-69
2023/08/11 09:24:14;;;;;;;4.47;3.45;;;25.20;99.90;;;;;;5108700;28;20039;-68
2023/08/11 09:26:45;;;;;;;7.47;3.30;;;25.40;99.90;;;;;;5108029;28;20615;-65
2023/08/11 09:29:11;;;;;;;8.00;3.45;;;25.50;99.90;;;;;;5107684;28;20047;-69
2023/08/11 09:31:39;;;;;;;8.35;3.53;;;25.70;99.90;;;;;;5108504;28;20135;-68
2023/08/11 09:34:14;;;;;;;5.72;3.42;;;25.60;99.90;;;;;;5108445;28;20036;-69
2023/08/11 09:36:42;;;;;;;6.25;2.90;;;25.60;99.90;;;;;;5107581;28;20630;-69
2023/08/11 09:39:08;;;;;;;7.82;3.20;;;25.60;99.90;;;;;;5111406;28;20508;-67
2023/08/11 09:41:42;;;;;;;4.88;3.10;;;25.80;99.90;;;;;;5111190;28;20035;-68
2023/08/11 09:44:10;;;;;;;5.38;3.40;;;25.90;99.90;;;;;;5091093;28;20108;-71
2023/08/11 09:46:37;;;;;;;6.05;3.20;;;25.80;99.90;;;;;;5091913;28;20035;-68
2023/08/11 09:49:03;;;;;;;5.30;3.10;;;25.90;99.90;;;;;;5109654;28;20063;-71
2023/08/11 09:51:31;;;;;;;4.43;2.88;;;25.90;99.90;;;;;;5109085;28;20447;-69
2023/08/11 09:54:02;;;;;;;7.63;3.38;;;25.90;99.90;;;;;;5107731;28;20043;-70
2023/08/11 09:56:29;;;;;;;4.13;3.00;;;26.10;99.80;;;;;;5108270;28;20068;-67
2023/08/11 09:58:57;;;;;;;5.35;3.05;;;26.20;99.90;;;;;;5108382;28;20413;-69
2023/08/11 10:01:25;;;;;;;5.00;3.00;;;26.50;99.90;;;;;;5107211;28;20387;-67
2023/08/11 10:03:53;;;;;;;5.57;2.75;;;26.60;99.40;;;;;;5117183;28;20051;-70
2023/08/11 10:06:26;;;;;;;9.15;3.30;;;26.80;99.90;;;;;;5115997;28;20047;-67
2023/08/11 10:08:53;;;;;;;3.88;2.75;;;27.00;99.30;;;;;;5107703;28;20093;-68
2023/08/11 10:11:24;;;;;;;5.47;3.03;;;27.00;98.10;;;;;;5109158;28;20036;-71
2023/08/11 10:13:51;;;;;;;4.90;2.70;;;27.00;98.50;;;;;;5106966;28;20084;-67
2023/08/11 10:16:18;;;;;;;7.35;2.60;;;27.20;99.30;;;;;;5107591;28;20067;-68
2023/08/11 10:18:44;;;;;;;3.78;2.65;;;27.20;97.70;;;;;;5108450;28;20036;-70
2023/08/11 10:21:10;;;;;;;7.50;2.63;;;27.30;96.90;;;;;;5112019;27;20389;-68
2023/08/11 10:23:37;;;;;;;5.15;2.40;;;27.40;96.80;;;;;;5145486;27;20046;-71
2023/08/11 10:26:03;;;;;;;5.03;2.67;;;27.50;97.20;;;;;;5130486;27;20038;-69
2023/08/11 10:28:29;;;;;;;4.10;2.70;;;27.60;95.60;;;;;;5119575;27;20515;-68
2023/08/11 10:30:57;;;;;;;3.63;2.13;;;27.70;96.10;;;;;;5128128;27;20038;-69
2023/08/11 10:33:22;;;;;;;4.70;2.20;;;27.80;96.20;;;;;;5120314;27;20042;-69
2023/08/11 10:35:51;;;;;;;5.13;2.45;;;28.00;96.70;;;;;;5098478;27;20047;-71
2023/08/11 10:38:32;;;;;;;3.10;2.40;;;28.10;95.20;;;;;;5115665;27;20825;-68
2023/08/11 10:41:25;;;;;;;3.65;2.50;;;28.20;96.20;;;;;;5120650;27;20047;-67
2023/08/11 10:43:51;;;;;;;6.65;2.80;;;28.30;92.50;;;;;;5118988;27;20055;-68
2023/08/11 10:46:21;;;;;;;4.30;2.30;;;28.20;93.80;;;;;;5109168;27;20074;-67
2023/08/11 10:48:47;;;;;;;3.85;2.30;;;28.20;94.20;;;;;;5143321;27;20084;-67
2023/08/11 10:51:32;;;;;;;5.38;2.20;;;28.30;94.00;;;;;;5129750;27;20378;-67
2023/08/11 10:54:25;;;;;;;4.95;2.20;;;28.40;93.50;;;;;;5124701;27;20035;-67
2023/08/11 10:56:52;;;;;;;5.38;2.45;;;28.50;93.30;;;;;;5062883;28;20057;-66
2023/08/11 10:59:19;;;;;;;6.80;2.72;;;28.60;92.70;;;;;;5062274;28;20067;-66
2023/08/11 11:01:47;;;;;;;3.33;2.25;;;28.40;92.30;;;;;;5063644;28;20743;-67
2023/08/11 11:04:14;;;;;;;5.15;2.50;;;28.10;92.60;;;;;;5046003;28;20115;-65
2023/08/11 11:06:41;;;;;;;2.78;2.22;;;28.00;92.90;;;;;;5046274;28;20037;-67
2023/08/11 11:09:08;;;;;;;4.80;2.50;;;27.90;93.50;;;;;;5045884;28;20052;-67
2023/08/11 11:11:36;;;;;;;3.22;2.25;;;27.90;93.60;;;;;;5062213;28;20472;-66
2023/08/11 11:14:03;;;;;;;4.80;2.17;;;28.00;94.50;;;;;;5063436;28;20127;-66
2023/08/11 11:16:30;;;;;;;5.50;2.33;;;28.10;93.90;;;;;;5044753;28;20045;-68
2023/08/11 11:18:55;;;;;;;4.18;2.53;;;28.20;93.40;;;;;;5047935;28;20049;-66
2023/08/11 11:21:22;;;;;;;2.53;2.10;;;28.30;94.00;;;;;;5045792;28;20111;-67
2023/08/11 11:23:50;;;;;;;3.25;2.53;;;28.50;93.60;;;;;;5045851;28;20045;-67
2023/08/11 11:26:27;;;;;;;7.20;2.38;;;28.50;92.40;;;;;;5053171;28;20422;-65
2023/08/11 11:28:54;;;;;;;4.60;2.55;;;28.30;92.10;;;;;;5052758;28;20048;-65
2023/08/11 11:31:21;;;;;;;5.15;2.60;;;28.30;93.80;;;;;;5052094;28;20044;-66
2023/08/11 11:33:48;;;;;;;5.75;2.50;;;28.30;93.80;;;;;;5088459;27;20046;-66
2023/08/11 11:36:17;;;;;;;5.95;2.38;;;28.30;94.60;;;;;;5128737;27;20050;-68
2023/08/11 11:38:43;;;;;;;3.95;2.55;;;28.30;93.80;;;;;;5143153;27;20564;-67
2023/08/11 11:41:10;;;;;;;3.22;2.45;;;28.40;94.80;;;;;;5126356;27;20035;-69
2023/08/11 11:43:36;;;;;;;3.53;2.50;;;28.60;94.40;;;;;;5106849;27;20122;-69
2023/08/11 11:46:01;;;;;;;5.25;2.40;;;28.50;93.40;;;;;;5121868;27;20039;-70
2023/08/11 11:48:27;;;;;;;3.67;2.58;;;28.60;94.60;;;;;;5127783;27;20046;-68
2023/08/11 11:50:53;;;;;;;3.30;2.00;;;28.60;93.70;;;;;;5125700;27;20042;-68
2023/08/11 11:53:22;;;;;;;4.30;2.35;;;28.60;93.00;;;;;;5125423;27;20043;-67
2023/08/11 11:55:50;;;;;;;3.72;2.20;;;28.40;92.80;;;;;;5125153;27;20138;-68
2023/08/11 11:58:17;;;;;;;6.68;2.50;;;28.40;92.80;;;;;;5124430;27;20038;-66
2023/08/11 12:00:45;;;;;;;4.70;2.40;;;28.20;92.90;;;;;;5147121;27;20430;-66
2023/08/11 12:03:11;;;;;;;7.60;2.90;;;27.90;92.80;;;;;;5123806;27;20050;-67
2023/08/11 12:05:37;;;;;;;4.40;2.60;;;27.70;93.30;;;;;;5127514;27;20039;-67
2023/08/11 12:08:20;;;;;;;6.13;2.45;;;27.60;93.90;;;;;;5122793;27;20087;-68
2023/08/11 12:10:47;;;;;;;4.78;2.90;;;27.60;95.00;;;;;;5127274;27;20039;-67
2023/08/11 12:13:12;;;;;;;3.88;2.70;;;27.60;94.00;;;;;;5121968;27;20058;-68
2023/08/11 12:15:38;;;;;;;6.07;2.60;;;27.50;94.90;;;;;;5120885;27;20054;-67
2023/08/11 12:18:05;;;;;;;4.97;2.70;;;27.60;95.60;;;;;;5120839;27;20073;-69
2023/08/11 12:20:31;;;;;;;5.68;3.33;;;27.60;95.10;;;;;;5121451;27;20038;-69
2023/08/11 12:22:57;;;;;;;4.72;2.80;;;27.50;95.50;;;;;;5112539;27;20043;-67
2023/08/11 12:25:23;;;;;;;3.83;2.70;;;27.50;96.00;;;;;;5112224;27;20044;-68
2023/08/11 12:27:48;;;;;;;4.53;2.70;;;27.40;96.00;;;;;;5117014;27;20046;-66
2023/08/11 12:30:15;;;;;;;4.15;2.67;;;27.30;97.70;;;;;;5101151;28;20047;-66
2023/08/11 12:32:41;;;;;;;5.20;2.95;;;27.30;97.30;;;;;;5110300;28;20047;-67
2023/08/11 12:35:11;;;;;;;6.15;2.95;;;27.20;97.40;;;;;;5109958;28;20389;-69
2023/08/11 12:37:37;;;;;;;3.00;2.70;;;27.30;97.50;;;;;;5121026;27;20039;-67
2023/08/11 12:40:03;;;;;;;3.63;2.70;;;27.30;97.30;;;;;;5119388;27;20038;-68
2023/08/11 12:42:29;;;;;;;4.05;2.55;;;27.30;97.20;;;;;;5119074;27;20172;-67